createdAt,value
2022-10-08T02:00:47.316Z,7.42
2022-10-08T02:01:07.964Z,7.45
2022-10-08T02:01:28.577Z,7.45
2022-10-08T02:01:49.179Z,7.45
2022-10-08T02:02:09.658Z,7.45
2022-10-08T02:02:30.320Z,7.46
2022-10-08T02:02:50.907Z,7.48
2022-10-08T02:03:11.492Z,7.46
2022-10-08T02:03:32.078Z,7.46
2022-10-08T02:03:52.673Z,7.46
2022-10-08T02:04:13.262Z,7.48
2022-10-08T02:04:33.845Z,7.49
2022-10-08T02:04:54.424Z,7.49
2022-10-08T02:05:14.821Z,7.48
2022-10-08T02:05:35.403Z,7.49
2022-10-08T02:05:55.988Z,7.50
2022-10-08T02:06:16.567Z,7.48
2022-10-08T02:06:37.147Z,7.48
2022-10-08T02:06:57.732Z,7.48
2022-10-08T02:07:18.339Z,7.49
2022-10-08T02:07:38.902Z,7.49
2022-10-08T02:07:59.480Z,7.49
2022-10-08T02:08:20.065Z,7.49
2022-10-08T02:08:40.460Z,7.49
2022-10-08T02:09:01.060Z,7.49
2022-10-08T02:09:21.640Z,7.48
2022-10-08T02:09:42.223Z,7.48
2022-10-08T02:10:02.809Z,7.48
2022-10-08T02:10:23.200Z,7.49
2022-10-08T02:10:43.784Z,7.49
2022-10-08T02:11:04.367Z,7.45
2022-10-08T02:11:24.950Z,7.45
2022-10-08T02:11:45.533Z,7.43
2022-10-08T02:12:06.115Z,7.43
2022-10-08T02:12:26.692Z,7.43
2022-10-08T02:12:47.478Z,7.45
2022-10-08T02:13:08.196Z,7.43
2022-10-08T02:13:28.787Z,7.43
2022-10-08T02:13:49.358Z,7.43
2022-10-08T02:14:09.970Z,7.43
2022-10-08T02:14:30.550Z,7.43
2022-10-08T02:14:51.154Z,7.43
2022-10-08T02:15:11.727Z,7.43
2022-10-08T02:15:32.309Z,7.43
2022-10-08T02:15:52.727Z,7.43
2022-10-08T02:16:13.319Z,7.45
2022-10-08T02:16:33.926Z,7.45
2022-10-08T02:16:54.591Z,7.45
2022-10-08T02:17:14.936Z,7.45
2022-10-08T02:17:35.513Z,7.43
2022-10-08T02:17:56.102Z,7.45
2022-10-08T02:18:16.686Z,7.45
2022-10-08T02:18:37.277Z,7.45
2022-10-08T02:18:57.855Z,7.46
2022-10-08T02:19:18.459Z,7.48
2022-10-08T02:19:39.048Z,7.46
2022-10-08T02:19:59.620Z,7.45
2022-10-08T02:20:20.201Z,7.45
2022-10-08T02:20:40.784Z,7.48
2022-10-08T02:21:01.367Z,7.45
2022-10-08T02:21:21.950Z,7.45
2022-10-08T02:21:42.535Z,7.45
2022-10-08T02:22:03.121Z,7.46
2022-10-08T02:22:23.703Z,7.48
2022-10-08T02:22:44.526Z,7.48
2022-10-08T02:23:05.279Z,7.49
2022-10-08T02:23:25.863Z,7.46
2022-10-08T02:23:46.450Z,7.48
2022-10-08T02:24:07.044Z,7.46
2022-10-08T02:24:27.656Z,7.45
2022-10-08T02:24:48.241Z,7.43
2022-10-08T02:25:08.823Z,7.43
2022-10-08T02:25:29.229Z,7.39
2022-10-08T02:25:49.805Z,7.40
2022-10-08T02:26:10.208Z,7.39
2022-10-08T02:26:30.599Z,7.37
2022-10-08T02:26:51.178Z,7.35
2022-10-08T02:27:11.585Z,7.34
2022-10-08T02:27:32.162Z,7.32
2022-10-08T02:27:52.746Z,7.32
2022-10-08T02:28:13.427Z,7.31
2022-10-08T02:28:34.070Z,7.31
2022-10-08T02:28:54.681Z,7.34
2022-10-08T02:29:15.266Z,7.34
2022-10-08T02:29:35.859Z,7.32
2022-10-08T02:29:56.445Z,7.30
2022-10-08T02:30:16.839Z,7.31
2022-10-08T02:30:37.423Z,7.31
2022-10-08T02:30:58.024Z,7.30
2022-10-08T02:31:18.654Z,7.30
2022-10-08T02:31:39.279Z,7.30
2022-10-08T02:31:59.900Z,7.31
2022-10-08T02:32:20.494Z,7.28
2022-10-08T02:32:41.080Z,7.28
2022-10-08T02:33:01.659Z,7.28
2022-10-08T02:33:22.241Z,7.28
2022-10-08T02:33:42.827Z,7.28
2022-10-08T02:34:03.422Z,7.28
2022-10-08T02:34:23.832Z,7.30
2022-10-08T02:34:44.419Z,7.30
2022-10-08T02:35:04.811Z,7.28
2022-10-08T02:35:25.567Z,7.30
2022-10-08T02:35:46.134Z,7.30
2022-10-08T02:36:06.715Z,7.28
2022-10-08T02:36:27.301Z,7.31
2022-10-08T02:36:47.874Z,7.30
2022-10-08T02:37:08.462Z,7.34
2022-10-08T02:37:29.041Z,7.34
2022-10-08T02:37:49.629Z,7.34
2022-10-08T02:38:10.213Z,7.37
2022-10-08T02:38:30.803Z,7.35
2022-10-08T02:38:51.381Z,7.37
2022-10-08T02:39:11.957Z,7.35
2022-10-08T02:39:32.559Z,7.39
2022-10-08T02:39:53.142Z,7.39
2022-10-08T02:40:13.543Z,7.37
2022-10-08T02:40:34.131Z,7.39
2022-10-08T02:40:54.708Z,7.42
2022-10-08T02:41:15.291Z,7.42
2022-10-08T02:41:35.880Z,7.40
2022-10-08T02:41:56.461Z,7.42
2022-10-08T02:42:17.049Z,7.42
2022-10-08T02:42:37.632Z,7.43
2022-10-08T02:42:58.215Z,7.42
2022-10-08T02:43:18.802Z,7.42
2022-10-08T02:43:39.199Z,7.42
2022-10-08T02:43:59.785Z,7.43
2022-10-08T02:44:20.363Z,7.43
2022-10-08T02:44:40.965Z,7.43
2022-10-08T02:45:01.646Z,7.42
2022-10-08T02:45:22.191Z,7.43
2022-10-08T02:45:42.831Z,7.45
2022-10-08T02:46:03.527Z,7.45
2022-10-08T02:46:24.254Z,7.46
2022-10-08T02:46:44.848Z,7.46
2022-10-08T02:47:05.433Z,7.45
2022-10-08T02:47:25.838Z,7.45
2022-10-08T02:47:46.413Z,7.43
2022-10-08T02:48:06.997Z,7.42
2022-10-08T02:48:27.585Z,7.43
2022-10-08T02:48:48.170Z,7.40
2022-10-08T02:49:08.752Z,7.42
2022-10-08T02:49:29.342Z,7.40
2022-10-08T02:49:49.937Z,7.40
2022-10-08T02:50:10.522Z,7.40
2022-10-08T02:50:31.108Z,7.42
2022-10-08T02:50:51.683Z,7.40
2022-10-08T02:51:12.267Z,7.42
2022-10-08T02:51:32.847Z,7.43
2022-10-08T02:51:53.432Z,7.43
2022-10-08T02:52:14.011Z,7.43
2022-10-08T02:52:34.597Z,7.45
2022-10-08T02:52:55.184Z,7.43
2022-10-08T02:53:15.777Z,7.45
2022-10-08T02:53:36.599Z,7.46
2022-10-08T02:53:57.179Z,7.43
2022-10-08T02:54:17.760Z,7.48
2022-10-08T02:54:38.369Z,7.45
2022-10-08T02:54:58.945Z,7.46
2022-10-08T02:55:19.340Z,7.45
2022-10-08T02:55:39.925Z,7.46
2022-10-08T02:56:00.507Z,7.48
2022-10-08T02:56:21.093Z,7.48
2022-10-08T02:56:41.676Z,7.45
2022-10-08T02:57:07.033Z,7.48
2022-10-08T02:57:22.650Z,7.48
2022-10-08T02:57:43.241Z,7.48
2022-10-08T02:58:03.824Z,7.48
2022-10-08T02:58:24.408Z,7.49
2022-10-08T02:58:44.990Z,7.48
2022-10-08T02:59:05.380Z,7.48
2022-10-08T02:59:25.965Z,7.49
2022-10-08T02:59:46.567Z,7.49
2022-10-08T03:00:07.139Z,7.49
2022-10-08T03:00:27.727Z,7.48
2022-10-08T03:00:48.355Z,7.50
2022-10-08T03:01:09.059Z,7.49
2022-10-08T03:01:29.783Z,7.49
2022-10-08T03:01:50.451Z,7.49
2022-10-08T03:02:11.169Z,7.50
2022-10-08T03:02:31.610Z,7.49
2022-10-08T03:02:52.299Z,7.50
2022-10-08T03:03:12.879Z,7.49
2022-10-08T03:03:33.467Z,7.50
2022-10-08T03:03:54.045Z,7.50
2022-10-08T03:04:14.629Z,7.50
2022-10-08T03:04:35.026Z,7.52
2022-10-08T03:04:55.621Z,7.52
2022-10-08T03:05:16.211Z,7.52
2022-10-08T03:05:36.791Z,7.52
2022-10-08T03:05:57.370Z,7.53
2022-10-08T03:06:17.956Z,7.52
2022-10-08T03:06:38.539Z,7.52
2022-10-08T03:06:59.130Z,7.52
2022-10-08T03:07:19.707Z,7.52
2022-10-08T03:07:40.289Z,7.52
2022-10-08T03:08:00.869Z,7.52
2022-10-08T03:08:21.461Z,7.52
2022-10-08T03:08:42.039Z,7.52
2022-10-08T03:09:02.622Z,7.52
2022-10-08T03:09:23.200Z,7.52
2022-10-08T03:09:43.799Z,7.52
2022-10-08T03:10:04.385Z,7.52
2022-10-08T03:10:24.967Z,7.52
2022-10-08T03:10:45.546Z,7.52
2022-10-08T03:11:06.140Z,7.52
2022-10-08T03:11:26.713Z,7.52
2022-10-08T03:11:47.302Z,7.53
2022-10-08T03:12:07.876Z,7.53
2022-10-08T03:12:28.460Z,7.53
2022-10-08T03:12:49.659Z,7.52
2022-10-08T03:13:10.399Z,7.52
2022-10-08T03:13:30.980Z,7.53
2022-10-08T03:13:51.568Z,7.53
2022-10-08T03:14:12.148Z,7.53
2022-10-08T03:14:32.732Z,7.55
2022-10-08T03:14:53.334Z,7.55
2022-10-08T03:15:13.912Z,7.55
2022-10-08T03:15:34.499Z,7.55
2022-10-08T03:15:55.089Z,7.53
2022-10-08T03:16:15.718Z,7.55
2022-10-08T03:16:36.414Z,7.55
2022-10-08T03:16:57.090Z,7.55
2022-10-08T03:17:17.690Z,7.55
2022-10-08T03:17:38.265Z,7.53
2022-10-08T03:17:58.850Z,7.55
2022-10-08T03:18:19.427Z,7.55
2022-10-08T03:18:40.011Z,7.57
2022-10-08T03:19:00.593Z,7.55
2022-10-08T03:19:21.177Z,7.53
2022-10-08T03:19:41.759Z,7.53
2022-10-08T03:20:02.349Z,7.53
2022-10-08T03:20:22.934Z,7.55
2022-10-08T03:20:43.515Z,7.53
2022-10-08T03:21:04.113Z,7.53
2022-10-08T03:21:24.702Z,7.52
2022-10-08T03:21:45.290Z,7.55
2022-10-08T03:22:05.939Z,7.52
2022-10-08T03:22:26.556Z,7.53
2022-10-08T03:22:47.435Z,7.52
2022-10-08T03:23:08.142Z,7.53
2022-10-08T03:23:28.538Z,7.52
2022-10-08T03:23:49.124Z,7.52
2022-10-08T03:24:09.703Z,7.52
2022-10-08T03:24:30.095Z,7.52
2022-10-08T03:24:53.772Z,7.50
2022-10-08T03:25:11.101Z,7.50
2022-10-08T03:25:31.685Z,7.50
2022-10-08T03:25:52.280Z,7.50
2022-10-08T03:26:12.863Z,7.50
2022-10-08T03:26:33.256Z,7.52
2022-10-08T03:26:53.839Z,7.50
2022-10-08T03:27:14.423Z,7.50
2022-10-08T03:27:35.005Z,7.50
2022-10-08T03:27:55.585Z,7.50
2022-10-08T03:28:16.234Z,7.52
2022-10-08T03:28:36.647Z,7.52
2022-10-08T03:28:57.243Z,7.50
2022-10-08T03:29:17.823Z,7.52
2022-10-08T03:29:38.404Z,7.52
2022-10-08T03:29:59.003Z,7.52
2022-10-08T03:30:19.590Z,7.50
2022-10-08T03:30:40.211Z,7.52
2022-10-08T03:31:00.857Z,7.52
2022-10-08T03:31:21.482Z,7.50
2022-10-08T03:31:42.051Z,7.52
2022-10-08T03:32:02.625Z,7.52
2022-10-08T03:32:23.214Z,7.50
2022-10-08T03:32:43.940Z,7.53
2022-10-08T03:33:04.563Z,7.53
2022-10-08T03:33:25.149Z,7.50
2022-10-08T03:33:45.555Z,7.52
2022-10-08T03:34:06.130Z,7.52
2022-10-08T03:34:26.713Z,7.52
2022-10-08T03:34:47.306Z,7.53
2022-10-08T03:35:07.886Z,7.52
2022-10-08T03:35:28.474Z,7.53
2022-10-08T03:35:49.056Z,7.53
2022-10-08T03:36:09.643Z,7.53
2022-10-08T03:36:30.225Z,7.52
2022-10-08T03:36:50.808Z,7.53
2022-10-08T03:37:11.390Z,7.53
2022-10-08T03:37:31.977Z,7.52
2022-10-08T03:37:52.560Z,7.53
2022-10-08T03:38:13.162Z,7.53
2022-10-08T03:38:33.742Z,7.53
2022-10-08T03:38:54.327Z,7.53
2022-10-08T03:39:14.927Z,7.52
2022-10-08T03:39:35.494Z,7.55
2022-10-08T03:39:56.084Z,7.57
2022-10-08T03:40:16.681Z,7.53
2022-10-08T03:40:37.264Z,7.55
2022-10-08T03:40:57.853Z,7.53
2022-10-08T03:41:18.246Z,7.55
2022-10-08T03:41:38.836Z,7.55
2022-10-08T03:41:59.412Z,7.55
2022-10-08T03:42:19.999Z,7.55
2022-10-08T03:42:40.582Z,7.57
2022-10-08T03:43:01.169Z,7.57
2022-10-08T03:43:21.745Z,7.57
2022-10-08T03:43:42.329Z,7.55
2022-10-08T03:44:02.724Z,7.55
2022-10-08T03:44:23.311Z,7.57
2022-10-08T03:44:43.906Z,7.55
2022-10-08T03:45:04.493Z,7.57
2022-10-08T03:45:25.080Z,7.57
2022-10-08T03:45:45.677Z,7.57
2022-10-08T03:46:06.341Z,7.57
2022-10-08T03:46:27.033Z,7.57
2022-10-08T03:46:47.594Z,7.57
2022-10-08T03:47:08.183Z,7.57
2022-10-08T03:47:28.760Z,7.58
2022-10-08T03:47:49.344Z,7.57
2022-10-08T03:48:09.925Z,7.57
2022-10-08T03:48:30.524Z,7.58
2022-10-08T03:48:51.121Z,7.57
2022-10-08T03:49:11.703Z,7.58
2022-10-08T03:49:32.288Z,7.60
2022-10-08T03:49:52.890Z,7.60
2022-10-08T03:50:13.469Z,7.58
2022-10-08T03:50:34.053Z,7.60
2022-10-08T03:50:54.635Z,7.58
2022-10-08T03:51:15.217Z,7.60
2022-10-08T03:51:35.803Z,7.60
2022-10-08T03:51:56.387Z,7.60
2022-10-08T03:52:16.969Z,7.60
2022-10-08T03:52:37.551Z,7.61
2022-10-08T03:52:58.135Z,7.60
2022-10-08T03:53:18.722Z,7.60
2022-10-08T03:53:39.313Z,7.58
2022-10-08T03:53:59.900Z,7.58
2022-10-08T03:54:20.472Z,7.58
2022-10-08T03:54:41.077Z,7.58
2022-10-08T03:55:01.659Z,7.57
2022-10-08T03:55:22.243Z,7.57
2022-10-08T03:55:42.822Z,7.57
2022-10-08T03:56:03.226Z,7.58
2022-10-08T03:56:23.792Z,7.57
2022-10-08T03:56:44.188Z,7.57
2022-10-08T03:57:04.768Z,7.55
2022-10-08T03:57:25.166Z,7.55
2022-10-08T03:57:45.744Z,7.55
2022-10-08T03:58:06.326Z,7.57
2022-10-08T03:58:26.911Z,7.57
2022-10-08T03:58:47.494Z,7.55
2022-10-08T03:59:07.884Z,7.55
2022-10-08T03:59:28.466Z,7.53
2022-10-08T03:59:49.063Z,7.57
2022-10-08T04:00:09.647Z,7.57
2022-10-08T04:00:30.230Z,7.53
2022-10-08T04:00:50.819Z,7.53
2022-10-08T04:01:11.492Z,7.52
2022-10-08T04:01:32.251Z,7.52
2022-10-08T04:01:52.898Z,7.53
2022-10-08T04:02:13.323Z,7.52
2022-10-08T04:02:34.046Z,7.52
2022-10-08T04:02:54.699Z,7.53
2022-10-08T04:03:15.248Z,7.53
2022-10-08T04:03:35.835Z,7.52
2022-10-08T04:03:56.419Z,7.53
2022-10-08T04:04:19.667Z,7.53
2022-10-08T04:04:37.248Z,7.53
2022-10-08T04:04:57.642Z,7.52
2022-10-08T04:05:18.217Z,7.53
2022-10-08T04:05:38.804Z,7.55
2022-10-08T04:05:59.197Z,7.53
2022-10-08T04:06:19.780Z,7.53
2022-10-08T04:06:40.357Z,7.53
2022-10-08T04:07:00.755Z,7.53
2022-10-08T04:07:21.336Z,7.53
2022-10-08T04:07:41.920Z,7.55
2022-10-08T04:08:02.505Z,7.53
2022-10-08T04:08:22.912Z,7.53
2022-10-08T04:08:43.482Z,7.53
2022-10-08T04:09:03.875Z,7.55
2022-10-08T04:09:24.459Z,7.55
2022-10-08T04:09:45.057Z,7.55
2022-10-08T04:10:05.638Z,7.57
2022-10-08T04:10:26.222Z,7.58
2022-10-08T04:10:46.802Z,7.58
2022-10-08T04:11:07.387Z,7.60
2022-10-08T04:11:27.964Z,7.60
2022-10-08T04:11:48.362Z,7.58
2022-10-08T04:12:08.953Z,7.58
2022-10-08T04:12:29.533Z,7.61
2022-10-08T04:12:50.249Z,7.61
2022-10-08T04:13:10.822Z,7.61
2022-10-08T04:13:31.404Z,7.63
2022-10-08T04:13:51.988Z,7.63
2022-10-08T04:14:12.570Z,7.63
2022-10-08T04:14:32.985Z,7.63
2022-10-08T04:14:53.570Z,7.61
2022-10-08T04:15:14.147Z,7.63
2022-10-08T04:15:34.778Z,7.64
2022-10-08T04:15:55.336Z,7.67
2022-10-08T04:16:16.026Z,7.67
2022-10-08T04:16:36.607Z,7.67
2022-10-08T04:16:57.168Z,7.67
2022-10-08T04:17:17.564Z,7.67
2022-10-08T04:17:38.147Z,7.68
2022-10-08T04:17:58.730Z,7.68
2022-10-08T04:18:19.126Z,7.69
2022-10-08T04:18:39.707Z,7.69
2022-10-08T04:19:00.303Z,7.69
2022-10-08T04:19:20.882Z,7.71
2022-10-08T04:19:41.478Z,7.71
2022-10-08T04:20:02.066Z,7.71
2022-10-08T04:20:22.689Z,7.72
2022-10-08T04:20:43.253Z,7.71
2022-10-08T04:21:03.837Z,7.71
2022-10-08T04:21:24.228Z,7.71
2022-10-08T04:21:44.813Z,7.72
2022-10-08T04:22:05.393Z,7.71
2022-10-08T04:22:25.977Z,7.72
2022-10-08T04:22:46.764Z,7.71
2022-10-08T04:23:07.517Z,7.72
2022-10-08T04:23:28.099Z,7.72
2022-10-08T04:23:48.687Z,7.72
2022-10-08T04:24:09.270Z,7.72
2022-10-08T04:24:29.863Z,7.71
2022-10-08T04:24:50.446Z,7.71
2022-10-08T04:25:11.042Z,7.71
2022-10-08T04:25:31.621Z,7.71
2022-10-08T04:25:52.201Z,7.74
2022-10-08T04:26:12.789Z,7.74
2022-10-08T04:26:33.375Z,7.74
2022-10-08T04:26:53.954Z,7.72
2022-10-08T04:27:14.534Z,7.74
2022-10-08T04:27:35.128Z,7.74
2022-10-08T04:27:55.713Z,7.72
2022-10-08T04:28:16.401Z,7.72
2022-10-08T04:28:38.748Z,7.75
2022-10-08T04:28:57.368Z,7.72
2022-10-08T04:29:17.941Z,7.74
2022-10-08T04:29:38.546Z,7.74
2022-10-08T04:29:59.129Z,7.72
2022-10-08T04:30:19.535Z,7.72
2022-10-08T04:30:39.992Z,7.74
2022-10-08T04:31:00.407Z,7.75
2022-10-08T04:31:21.036Z,7.75
2022-10-08T04:31:41.594Z,7.75
2022-10-08T04:32:02.160Z,7.74
2022-10-08T04:32:22.738Z,7.74
2022-10-08T04:32:43.490Z,7.74
2022-10-08T04:33:04.114Z,7.75
2022-10-08T04:33:24.685Z,7.75
2022-10-08T04:33:46.077Z,7.75
2022-10-08T04:34:06.675Z,7.75
2022-10-08T04:34:27.264Z,7.75
2022-10-08T04:34:47.851Z,7.77
2022-10-08T04:35:08.425Z,7.77
2022-10-08T04:35:29.008Z,7.77
2022-10-08T04:35:49.593Z,7.75
2022-10-08T04:36:10.173Z,7.77
2022-10-08T04:36:30.765Z,7.77
2022-10-08T04:36:51.338Z,7.77
2022-10-08T04:37:11.740Z,7.80
2022-10-08T04:37:32.317Z,7.79
2022-10-08T04:37:52.909Z,7.79
2022-10-08T04:38:13.480Z,7.77
2022-10-08T04:38:34.072Z,7.80
2022-10-08T04:38:54.654Z,7.75
2022-10-08T04:39:15.246Z,7.80
2022-10-08T04:39:35.828Z,7.79
2022-10-08T04:39:56.411Z,7.77
2022-10-08T04:40:16.997Z,7.79
2022-10-08T04:41:25.368Z,7.77
2022-10-08T04:41:45.951Z,7.77
2022-10-08T04:42:06.538Z,7.75
2022-10-08T04:42:27.121Z,7.79
2022-10-08T04:42:50.412Z,7.79
2022-10-08T04:43:10.989Z,7.79
2022-10-08T04:43:31.568Z,7.75
2022-10-08T04:43:52.151Z,7.79
2022-10-08T04:44:12.754Z,7.77
2022-10-08T04:44:33.349Z,7.79
2022-10-08T04:44:53.934Z,7.77
2022-10-08T04:45:14.516Z,7.77
2022-10-08T04:45:35.099Z,7.77
2022-10-08T04:45:55.541Z,7.77
2022-10-08T04:46:16.163Z,7.77
2022-10-08T04:46:36.845Z,7.80
2022-10-08T04:46:57.176Z,7.77
2022-10-08T04:47:17.744Z,7.77
2022-10-08T04:47:38.328Z,7.77
2022-10-08T04:47:58.914Z,7.79
2022-10-08T04:48:19.491Z,7.79
2022-10-08T04:48:40.075Z,7.77
2022-10-08T04:49:00.658Z,7.79
2022-10-08T04:49:21.256Z,7.75
2022-10-08T04:49:41.835Z,7.77
2022-10-08T04:50:02.418Z,7.79
2022-10-08T04:50:23.002Z,7.77
2022-10-08T04:50:43.585Z,7.75
2022-10-08T04:51:08.096Z,7.75
2022-10-08T04:51:24.576Z,7.77
2022-10-08T04:51:45.154Z,7.75
2022-10-08T04:52:05.740Z,7.74
2022-10-08T04:52:26.320Z,7.75
2022-10-08T04:52:47.194Z,7.75
2022-10-08T04:53:07.947Z,7.77
2022-10-08T04:53:28.532Z,7.77
2022-10-08T04:53:49.121Z,7.75
2022-10-08T04:54:09.704Z,7.79
2022-10-08T04:54:30.309Z,7.79
2022-10-08T04:54:50.895Z,7.79
2022-10-08T04:55:11.475Z,7.75
2022-10-08T04:55:32.057Z,7.79
2022-10-08T04:55:52.652Z,7.77
2022-10-08T04:56:13.044Z,7.77
2022-10-08T04:56:33.630Z,7.79
2022-10-08T04:56:54.213Z,7.77
2022-10-08T04:57:14.794Z,7.79
2022-10-08T04:57:35.192Z,7.79
2022-10-08T04:57:55.778Z,7.77
2022-10-08T04:59:03.952Z,7.77
2022-10-08T04:59:24.346Z,7.77
2022-10-08T05:00:13.057Z,7.75
2022-10-08T05:00:18.304Z,7.75
2022-10-08T05:00:26.030Z,7.77
2022-10-08T05:00:46.610Z,7.75
2022-10-08T05:01:07.195Z,7.75
2022-10-08T05:01:27.708Z,7.75
2022-10-08T05:01:48.326Z,7.77
2022-10-08T05:02:08.991Z,7.74
2022-10-08T05:02:29.550Z,7.75
2022-10-08T05:02:50.792Z,7.75
2022-10-08T05:03:11.800Z,7.75
2022-10-08T05:03:32.418Z,7.74
2022-10-08T05:03:53.009Z,7.75
2022-10-08T05:04:13.586Z,7.74
2022-10-08T05:04:34.186Z,7.74
2022-10-08T05:04:54.761Z,7.74
2022-10-08T05:05:15.351Z,7.74
2022-10-08T05:05:35.747Z,7.74
2022-10-08T05:05:56.325Z,7.77
2022-10-08T05:06:16.916Z,7.74
2022-10-08T05:06:37.491Z,7.72
2022-10-08T05:06:58.072Z,7.72
2022-10-08T05:07:18.470Z,7.72
2022-10-08T05:07:38.865Z,7.74
2022-10-08T05:07:59.446Z,7.74
2022-10-08T05:08:20.027Z,7.72
2022-10-08T05:08:40.620Z,7.72
2022-10-08T05:09:01.187Z,7.71
2022-10-08T05:09:21.601Z,7.71
2022-10-08T05:09:42.186Z,7.72
2022-10-08T05:10:02.764Z,7.71
2022-10-08T05:10:23.368Z,7.72
2022-10-08T05:10:43.928Z,7.69
2022-10-08T05:11:04.328Z,7.69
2022-10-08T05:11:24.912Z,7.71
2022-10-08T05:11:45.306Z,7.72
2022-10-08T05:12:05.887Z,7.69
2022-10-08T05:12:26.284Z,7.71
2022-10-08T05:12:47.159Z,7.71
2022-10-08T05:13:07.850Z,7.69
2022-10-08T05:13:28.444Z,7.68
2022-10-08T05:13:49.007Z,7.68
2022-10-08T05:14:09.402Z,7.69
2022-10-08T05:14:30.001Z,7.69
2022-10-08T05:14:50.588Z,7.68
2022-10-08T05:15:11.170Z,7.68
2022-10-08T05:15:31.806Z,7.67
2022-10-08T05:15:52.412Z,7.68
2022-10-08T05:16:13.169Z,7.68
2022-10-08T05:16:33.836Z,7.67
2022-10-08T05:16:54.420Z,7.69
2022-10-08T05:17:15.030Z,7.68
2022-10-08T05:17:35.599Z,7.67
2022-10-08T05:17:56.176Z,7.68
2022-10-08T05:18:16.762Z,7.68
2022-10-08T05:18:37.345Z,7.68
2022-10-08T05:18:57.932Z,7.67
2022-10-08T05:19:18.531Z,7.67
2022-10-08T05:19:39.112Z,7.67
2022-10-08T05:19:59.697Z,7.67
2022-10-08T05:20:20.280Z,7.64
2022-10-08T05:20:40.863Z,7.67
2022-10-08T05:21:01.445Z,7.64
2022-10-08T05:21:22.030Z,7.64
2022-10-08T05:21:42.613Z,7.64
2022-10-08T05:22:03.195Z,7.64
2022-10-08T05:22:23.786Z,7.64
2022-10-08T05:22:44.644Z,7.64
2022-10-08T05:23:05.436Z,7.64
2022-10-08T05:23:26.013Z,7.64
2022-10-08T05:23:46.599Z,7.64
2022-10-08T05:24:07.179Z,7.64
2022-10-08T05:24:27.773Z,7.63
2022-10-08T05:24:48.360Z,7.63
2022-10-08T05:25:56.728Z,7.64
2022-10-08T05:26:17.314Z,7.63
2022-10-08T05:26:59.225Z,7.63
2022-10-08T05:27:04.100Z,7.61
2022-10-08T05:28:08.938Z,7.61
2022-10-08T05:28:29.634Z,7.61
2022-10-08T05:28:50.273Z,7.60
2022-10-08T05:29:10.884Z,7.61
2022-10-08T05:29:31.458Z,7.61
2022-10-08T05:29:52.041Z,7.60
2022-10-08T05:30:12.622Z,7.60
2022-10-08T05:30:33.017Z,7.60
2022-10-08T05:30:53.648Z,7.58
2022-10-08T05:31:14.299Z,7.60
2022-10-08T05:31:34.932Z,7.60
2022-10-08T05:31:55.499Z,7.60
2022-10-08T05:32:16.078Z,7.60
2022-10-08T05:32:36.808Z,7.60
2022-10-08T05:32:57.342Z,7.61
2022-10-08T05:34:05.709Z,7.60
2022-10-08T05:34:26.307Z,7.60
2022-10-08T05:34:46.892Z,7.60
2022-10-08T05:35:07.473Z,7.60
2022-10-08T05:35:28.057Z,7.58
2022-10-08T05:35:48.648Z,7.60
2022-10-08T05:36:09.230Z,7.58
2022-10-08T05:36:29.814Z,7.60
2022-10-08T05:36:50.403Z,7.58
2022-10-08T05:37:10.990Z,7.58
2022-10-08T05:37:31.577Z,7.60
2022-10-08T05:37:52.163Z,7.58
2022-10-08T05:38:12.746Z,7.60
2022-10-08T05:38:35.209Z,7.58
2022-10-08T05:38:56.006Z,7.60
2022-10-08T05:39:16.601Z,7.58
2022-10-08T05:39:36.990Z,7.58
2022-10-08T05:39:57.573Z,7.60
2022-10-08T05:40:18.159Z,7.58
2022-10-08T05:40:38.741Z,7.58
2022-10-08T05:40:59.349Z,7.58
2022-10-08T05:41:19.919Z,7.60
2022-10-08T05:41:40.504Z,7.58
2022-10-08T05:42:00.899Z,7.58
2022-10-08T05:42:21.484Z,7.60
2022-10-08T05:42:42.065Z,7.60
2022-10-08T05:43:02.648Z,7.60
2022-10-08T05:43:23.234Z,7.60
2022-10-08T05:43:43.817Z,7.60
2022-10-08T05:44:04.399Z,7.60
2022-10-08T05:44:25.004Z,7.60
2022-10-08T05:44:45.704Z,7.60
2022-10-08T05:45:06.244Z,7.61
2022-10-08T05:45:26.829Z,7.60
2022-10-08T05:45:47.410Z,7.60
2022-10-08T05:46:08.035Z,7.60
2022-10-08T05:46:28.710Z,7.60
2022-10-08T05:46:49.405Z,7.60
2022-10-08T05:47:09.987Z,7.60
2022-10-08T05:47:30.571Z,7.60
2022-10-08T05:47:51.174Z,7.60
2022-10-08T05:48:11.734Z,7.60
2022-10-08T05:48:32.317Z,7.60
2022-10-08T05:48:52.904Z,7.60
2022-10-08T05:49:13.502Z,7.60
2022-10-08T05:49:34.080Z,7.63
2022-10-08T05:49:54.662Z,7.61
2022-10-08T05:50:15.244Z,7.61
2022-10-08T05:50:35.830Z,7.61
2022-10-08T05:50:56.411Z,7.61
2022-10-08T05:51:16.992Z,7.63
2022-10-08T05:51:37.577Z,7.61
2022-10-08T05:51:58.157Z,7.61
2022-10-08T05:52:18.748Z,7.61
2022-10-08T05:52:39.336Z,7.63
2022-10-08T05:52:59.725Z,7.63
2022-10-08T05:53:20.305Z,7.61
2022-10-08T05:53:40.702Z,7.63
2022-10-08T05:54:01.283Z,7.61
2022-10-08T05:54:21.696Z,7.61
2022-10-08T05:54:42.281Z,7.63
2022-10-08T05:55:02.867Z,7.63
2022-10-08T05:55:23.452Z,7.60
2022-10-08T05:55:44.034Z,7.63
2022-10-08T05:56:04.614Z,7.63
2022-10-08T05:56:25.199Z,7.63
2022-10-08T05:56:45.596Z,7.63
2022-10-08T05:57:05.989Z,7.61
2022-10-08T05:57:26.386Z,7.63
2022-10-08T05:57:46.968Z,7.63
2022-10-08T05:58:07.555Z,7.61
2022-10-08T05:58:30.470Z,7.64
2022-10-08T05:58:51.202Z,7.63
2022-10-08T05:59:11.789Z,7.61
2022-10-08T05:59:32.389Z,7.61
2022-10-08T05:59:52.980Z,7.63
2022-10-08T06:00:13.564Z,7.63
2022-10-08T06:00:34.146Z,7.63
2022-10-08T06:00:54.732Z,7.61
2022-10-08T06:01:15.314Z,7.61
2022-10-08T06:01:35.704Z,7.61
2022-10-08T06:01:56.103Z,7.63
2022-10-08T06:02:16.698Z,7.61
2022-10-08T06:02:37.386Z,7.61
2022-10-08T06:02:58.018Z,7.61
2022-10-08T06:03:18.596Z,7.63
2022-10-08T06:03:39.190Z,7.63
2022-10-08T06:04:03.119Z,7.63
2022-10-08T06:04:20.274Z,7.61
2022-10-08T06:04:40.920Z,7.63
2022-10-08T06:05:01.550Z,7.63
2022-10-08T06:05:22.151Z,7.63
2022-10-08T06:05:42.722Z,7.63
2022-10-08T06:06:03.324Z,7.61
2022-10-08T06:06:23.894Z,7.63
2022-10-08T06:06:44.481Z,7.61
2022-10-08T06:07:05.068Z,7.61
2022-10-08T06:07:25.651Z,7.60
2022-10-08T06:07:46.233Z,7.61
2022-10-08T06:08:06.635Z,7.61
2022-10-08T06:08:27.224Z,7.61
2022-10-08T06:08:47.806Z,7.60
2022-10-08T06:09:08.410Z,7.61
2022-10-08T06:09:28.803Z,7.61
2022-10-08T06:09:49.402Z,7.60
2022-10-08T06:10:09.984Z,7.61
2022-10-08T06:10:30.564Z,7.60
2022-10-08T06:10:51.147Z,7.60
2022-10-08T06:11:11.727Z,7.61
2022-10-08T06:11:32.121Z,7.60
2022-10-08T06:11:52.705Z,7.61
2022-10-08T06:12:13.102Z,7.60
2022-10-08T06:12:33.693Z,7.61
2022-10-08T06:12:54.277Z,7.60
2022-10-08T06:13:14.852Z,7.61
2022-10-08T06:13:35.443Z,7.61
2022-10-08T06:13:55.860Z,7.61
2022-10-08T06:14:16.444Z,7.60
2022-10-08T06:14:36.848Z,7.61
2022-10-08T06:14:57.431Z,7.63
2022-10-08T06:15:18.014Z,7.60
2022-10-08T06:15:38.592Z,7.58
2022-10-08T06:15:59.242Z,7.60
2022-10-08T06:16:19.912Z,7.60
2022-10-08T06:16:40.647Z,7.61
2022-10-08T06:17:01.252Z,7.61
2022-10-08T06:17:21.834Z,7.60
2022-10-08T06:17:42.420Z,7.61
2022-10-08T06:18:03.027Z,7.60
2022-10-08T06:18:23.589Z,7.60
2022-10-08T06:18:44.179Z,7.58
2022-10-08T06:19:04.989Z,7.60
2022-10-08T06:19:25.574Z,7.60
2022-10-08T06:19:46.159Z,7.58
2022-10-08T06:20:06.744Z,7.60
2022-10-08T06:20:31.674Z,7.60
2022-10-08T06:20:47.725Z,7.60
2022-10-08T06:21:08.301Z,7.61
2022-10-08T06:21:28.887Z,7.58
2022-10-08T06:21:49.472Z,7.58
2022-10-08T06:22:10.057Z,7.61
2022-10-08T06:22:30.635Z,7.60
2022-10-08T06:22:51.233Z,7.60
2022-10-08T06:23:11.812Z,7.60
2022-10-08T06:23:32.221Z,7.63
2022-10-08T06:23:52.808Z,7.60
2022-10-08T06:24:13.214Z,7.60
2022-10-08T06:24:33.797Z,7.60
2022-10-08T06:24:54.377Z,7.61
2022-10-08T06:25:14.970Z,7.60
2022-10-08T06:25:35.554Z,7.61
2022-10-08T06:25:56.137Z,7.60
2022-10-08T06:26:16.721Z,7.63
2022-10-08T06:26:37.296Z,7.63
2022-10-08T06:26:57.884Z,7.63
2022-10-08T06:27:18.465Z,7.64
2022-10-08T06:27:39.051Z,7.63
2022-10-08T06:27:59.787Z,7.63
2022-10-08T06:28:20.423Z,7.64
2022-10-08T06:28:41.081Z,7.63
2022-10-08T06:29:01.691Z,7.64
2022-10-08T06:29:22.290Z,7.64
2022-10-08T06:29:42.866Z,7.67
2022-10-08T06:30:03.443Z,7.67
2022-10-08T06:30:24.030Z,7.67
2022-10-08T06:30:44.607Z,7.67
2022-10-08T06:31:05.268Z,7.67
2022-10-08T06:31:25.849Z,7.68
2022-10-08T06:31:46.532Z,7.64
2022-10-08T06:32:07.131Z,7.68
2022-10-08T06:32:27.716Z,7.67
2022-10-08T06:32:48.684Z,7.68
2022-10-08T06:33:09.753Z,7.69
2022-10-08T06:33:30.318Z,7.69
2022-10-08T06:33:50.903Z,7.69
2022-10-08T06:34:11.494Z,7.69
2022-10-08T06:34:32.079Z,7.69
2022-10-08T06:34:52.661Z,7.71
2022-10-08T06:35:13.248Z,7.71
2022-10-08T06:35:33.828Z,7.71
2022-10-08T06:35:54.408Z,7.72
2022-10-08T06:36:14.995Z,7.72
2022-10-08T06:36:35.578Z,7.72
2022-10-08T06:36:56.156Z,7.72
2022-10-08T06:37:16.741Z,7.75
2022-10-08T06:37:37.322Z,7.75
2022-10-08T06:37:57.908Z,7.77
2022-10-08T06:38:18.489Z,7.77
2022-10-08T06:38:39.072Z,7.77